createdAt,value
2023-02-27T00:00:33.494Z,72.93
2023-02-27T00:01:32.498Z,72.95
2023-02-27T00:02:32.603Z,72.95
2023-02-27T00:03:32.550Z,72.95
2023-02-27T00:04:32.468Z,72.95
2023-02-27T00:05:33.360Z,72.95
2023-02-27T00:06:32.437Z,72.93
2023-02-27T00:07:32.440Z,72.93
2023-02-27T00:08:32.434Z,72.92
2023-02-27T00:09:32.380Z,72.93
2023-02-27T00:10:32.474Z,72.94
2023-02-27T00:11:33.292Z,72.92
2023-02-27T00:12:32.352Z,72.92
2023-02-27T00:13:32.496Z,72.92
2023-02-27T00:14:32.304Z,72.93
2023-02-27T00:15:32.330Z,72.93
2023-02-27T00:16:33.233Z,72.93
2023-02-27T00:17:32.309Z,72.96
2023-02-27T00:18:32.286Z,72.98
2023-02-27T00:19:32.258Z,73.00
2023-02-27T00:20:32.272Z,72.99
2023-02-27T00:21:34.705Z,73.00
2023-02-27T00:22:32.227Z,73.00
2023-02-27T00:23:32.256Z,72.99
2023-02-27T00:24:32.210Z,72.96
2023-02-27T00:25:32.176Z,72.93
2023-02-27T00:26:33.193Z,72.93
2023-02-27T00:27:32.178Z,72.94
2023-02-27T00:28:32.220Z,72.93
2023-02-27T00:29:32.136Z,72.92
2023-02-27T00:30:32.170Z,72.90
2023-02-27T00:31:32.158Z,72.89
2023-02-27T00:32:33.130Z,72.88
2023-02-27T00:33:32.122Z,72.88
2023-02-27T00:34:32.093Z,72.87
2023-02-27T00:35:32.035Z,72.84
2023-02-27T00:36:32.088Z,72.85
2023-02-27T00:37:32.979Z,72.85
2023-02-27T00:38:32.007Z,72.86
2023-02-27T00:39:32.018Z,72.87
2023-02-27T00:40:31.988Z,72.88
2023-02-27T00:41:31.989Z,72.89
2023-02-27T00:42:32.978Z,72.87
2023-02-27T00:43:31.969Z,72.86
2023-02-27T00:44:32.016Z,72.86
2023-02-27T00:45:31.950Z,72.88
2023-02-27T00:46:31.955Z,72.91
2023-02-27T00:47:32.808Z,72.94
2023-02-27T00:48:31.910Z,72.92
2023-02-27T00:49:31.880Z,72.92
2023-02-27T00:50:31.843Z,72.93
2023-02-27T00:51:31.862Z,72.91
2023-02-27T00:52:31.844Z,72.90
2023-02-27T00:53:32.765Z,72.90
2023-02-27T00:54:31.809Z,72.87
2023-02-27T00:55:31.816Z,72.88
2023-02-27T00:56:31.779Z,72.89
2023-02-27T00:57:31.817Z,72.88
2023-02-27T00:58:32.677Z,72.89
2023-02-27T00:59:31.831Z,72.91
2023-02-27T01:00:31.765Z,72.89
2023-02-27T01:01:31.723Z,72.89
2023-02-27T01:02:31.794Z,72.90
2023-02-27T01:03:31.708Z,72.91
2023-02-27T01:04:32.607Z,72.91
2023-02-27T01:05:31.685Z,72.91
2023-02-27T01:06:31.651Z,72.89
2023-02-27T01:07:31.642Z,72.88
2023-02-27T01:08:31.652Z,72.87
2023-02-27T01:09:32.566Z,72.88
2023-02-27T01:10:31.647Z,72.85
2023-02-27T01:11:31.591Z,72.85
2023-02-27T01:12:31.632Z,72.85
2023-02-27T01:13:31.576Z,72.86
2023-02-27T01:14:31.558Z,72.85
2023-02-27T01:15:32.476Z,72.86
2023-02-27T01:16:31.571Z,72.85
2023-02-27T01:17:31.534Z,72.83
2023-02-27T01:18:31.589Z,72.82
2023-02-27T01:19:31.543Z,72.80
2023-02-27T01:20:32.409Z,72.79
2023-02-27T01:21:31.456Z,72.80
2023-02-27T01:22:31.513Z,72.80
2023-02-27T01:23:31.443Z,72.79
2023-02-27T01:24:31.448Z,72.79
2023-02-27T01:25:32.341Z,72.77
2023-02-27T01:26:31.412Z,72.77
2023-02-27T01:27:31.400Z,72.75
2023-02-27T01:28:31.387Z,72.77
2023-02-27T01:29:31.361Z,72.77
2023-02-27T01:30:31.437Z,72.78
2023-02-27T01:31:32.270Z,72.78
2023-02-27T01:32:31.343Z,72.76
2023-02-27T01:33:31.309Z,72.75
2023-02-27T01:34:33.897Z,72.76
2023-02-27T01:35:31.291Z,72.75
2023-02-27T01:36:31.286Z,72.77
2023-02-27T01:37:32.180Z,72.80
2023-02-27T01:38:31.261Z,72.82
2023-02-27T01:39:31.236Z,72.81
2023-02-27T01:40:31.238Z,72.82
2023-02-27T01:41:31.208Z,72.82
2023-02-27T01:42:31.189Z,72.79
2023-02-27T01:43:32.123Z,72.79
2023-02-27T01:44:31.191Z,72.80
2023-02-27T01:45:31.231Z,72.81
2023-02-27T01:46:31.142Z,72.83
2023-02-27T01:47:31.164Z,72.85
2023-02-27T01:48:31.106Z,72.86
2023-02-27T01:49:32.017Z,72.88
2023-02-27T01:50:31.153Z,72.90
2023-02-27T01:51:31.068Z,72.90
2023-02-27T01:52:31.118Z,72.91
2023-02-27T01:53:31.076Z,72.90
2023-02-27T01:54:31.023Z,72.91
2023-02-27T01:55:31.961Z,72.88
2023-02-27T01:56:31.047Z,72.87
2023-02-27T01:57:31.009Z,72.87
2023-02-27T01:58:30.971Z,72.87
2023-02-27T01:59:30.980Z,72.85
2023-02-27T02:00:31.953Z,72.85
2023-02-27T02:01:30.968Z,72.87
2023-02-27T02:02:31.001Z,72.88
2023-02-27T02:03:30.928Z,72.87
2023-02-27T02:04:30.916Z,72.81
2023-02-27T02:05:31.842Z,72.78
2023-02-27T02:06:30.930Z,72.76
2023-02-27T02:07:30.873Z,72.75
2023-02-27T02:08:30.877Z,72.75
2023-02-27T02:09:30.874Z,72.77
2023-02-27T02:10:31.765Z,72.77
2023-02-27T02:11:30.811Z,72.76
2023-02-27T02:12:30.799Z,72.73
2023-02-27T02:13:30.814Z,72.74
2023-02-27T02:14:30.767Z,72.73
2023-02-27T02:15:31.703Z,72.73
2023-02-27T02:16:30.894Z,72.70
2023-02-27T02:17:30.756Z,72.71
2023-02-27T02:18:30.730Z,72.69
2023-02-27T02:19:30.705Z,72.69
2023-02-27T02:20:31.629Z,72.69
2023-02-27T02:21:30.717Z,72.73
2023-02-27T02:22:30.682Z,72.73
2023-02-27T02:23:30.717Z,72.75
2023-02-27T02:24:30.659Z,72.77
2023-02-27T02:25:30.627Z,72.77
2023-02-27T02:26:33.580Z,72.77
2023-02-27T02:27:30.633Z,72.78
2023-02-27T02:28:30.611Z,72.76
2023-02-27T02:29:30.585Z,72.77
2023-02-27T02:30:30.675Z,72.76
2023-02-27T02:31:31.943Z,72.79
2023-02-27T02:32:30.555Z,72.80
2023-02-27T02:33:30.580Z,72.83
2023-02-27T02:34:30.547Z,72.85
2023-02-27T02:35:30.501Z,72.82
2023-02-27T02:36:30.538Z,72.83
2023-02-27T02:37:31.496Z,72.85
2023-02-27T02:38:30.504Z,72.86
2023-02-27T02:39:30.465Z,72.85
2023-02-27T02:40:30.446Z,72.86
2023-02-27T02:41:30.461Z,72.86
2023-02-27T02:42:30.464Z,72.88
2023-02-27T02:43:31.351Z,72.88
2023-02-27T02:44:30.409Z,72.89
2023-02-27T02:45:30.385Z,72.89
2023-02-27T02:46:30.378Z,72.89
2023-02-27T02:47:30.405Z,72.90
2023-02-27T02:48:31.277Z,72.88
2023-02-27T02:49:30.357Z,72.93
2023-02-27T02:50:30.324Z,72.91
2023-02-27T02:51:30.323Z,72.93
2023-02-27T02:52:30.327Z,72.94
2023-02-27T02:53:37.116Z,72.94
2023-02-27T02:54:31.763Z,72.93
2023-02-27T02:55:30.286Z,72.94
2023-02-27T02:56:30.263Z,72.93
2023-02-27T02:57:30.261Z,72.92
2023-02-27T02:58:30.224Z,72.90
2023-02-27T02:59:31.155Z,72.91
2023-02-27T03:00:30.205Z,72.91
2023-02-27T03:01:30.418Z,72.88
2023-02-27T03:02:30.197Z,72.86
2023-02-27T03:03:30.178Z,72.85
2023-02-27T03:04:31.179Z,72.83
2023-02-27T03:05:30.171Z,72.84
2023-02-27T03:06:30.157Z,72.84
2023-02-27T03:07:30.195Z,72.84
2023-02-27T03:08:30.114Z,72.83
2023-02-27T03:09:31.013Z,72.82
2023-02-27T03:10:30.072Z,72.79
2023-02-27T03:11:30.094Z,72.81
2023-02-27T03:12:30.042Z,72.79
2023-02-27T03:13:30.053Z,72.76
2023-02-27T03:14:30.040Z,72.75
2023-02-27T03:15:31.027Z,72.73
2023-02-27T03:16:29.989Z,72.74
2023-02-27T03:17:30.002Z,72.70
2023-02-27T03:18:29.976Z,72.69
2023-02-27T03:19:29.994Z,72.67
2023-02-27T03:20:30.881Z,72.69
2023-02-27T03:21:29.963Z,72.71
2023-02-27T03:22:29.910Z,72.71
2023-02-27T03:23:29.887Z,72.75
2023-02-27T03:24:29.893Z,72.77
2023-02-27T03:25:29.894Z,72.76
2023-02-27T03:26:30.818Z,72.77
2023-02-27T03:27:29.856Z,72.75
2023-02-27T03:28:29.916Z,72.74
2023-02-27T03:29:29.823Z,72.72
2023-02-27T03:30:29.911Z,72.73
2023-02-27T03:31:30.165Z,72.72
2023-02-27T03:32:30.779Z,72.73
2023-02-27T03:33:29.818Z,72.75
2023-02-27T03:34:29.795Z,72.75
2023-02-27T03:35:29.758Z,72.75
2023-02-27T03:36:29.779Z,72.76
2023-02-27T03:37:30.718Z,72.75
2023-02-27T03:38:29.721Z,72.74
2023-02-27T03:39:29.702Z,72.76
2023-02-27T03:40:29.695Z,72.74
2023-02-27T03:41:29.795Z,72.72
2023-02-27T03:42:29.669Z,72.74
2023-02-27T03:43:30.650Z,72.75
2023-02-27T03:44:29.675Z,72.77
2023-02-27T03:45:29.628Z,72.78
2023-02-27T03:46:29.703Z,72.78
2023-02-27T03:47:29.599Z,72.77
2023-02-27T03:48:30.530Z,72.77
2023-02-27T03:49:29.566Z,72.75
2023-02-27T03:50:29.579Z,72.74
2023-02-27T03:51:29.804Z,72.72
2023-02-27T03:52:29.537Z,72.72
2023-02-27T03:53:30.454Z,72.71
2023-02-27T03:54:29.495Z,72.72
2023-02-27T03:55:29.576Z,72.73
2023-02-27T03:56:29.525Z,72.76
2023-02-27T03:57:29.476Z,72.76
2023-02-27T03:58:29.469Z,72.75
2023-02-27T03:59:30.511Z,72.71
2023-02-27T04:00:29.447Z,72.71
2023-02-27T04:01:29.706Z,72.72
2023-02-27T04:02:29.445Z,72.74
2023-02-27T04:03:29.412Z,72.72
2023-02-27T04:04:29.434Z,72.72
2023-02-27T04:05:30.310Z,72.73
2023-02-27T04:06:29.346Z,72.74
2023-02-27T04:07:29.355Z,72.74
2023-02-27T04:08:29.439Z,72.74
2023-02-27T04:09:29.382Z,72.73
2023-02-27T04:10:30.258Z,72.73
2023-02-27T04:11:29.609Z,72.78
2023-02-27T04:12:29.334Z,72.79
2023-02-27T04:13:29.387Z,72.76
2023-02-27T04:14:29.301Z,72.76
2023-02-27T04:15:30.255Z,72.77
2023-02-27T04:16:29.244Z,72.75
2023-02-27T04:17:29.236Z,72.75
2023-02-27T04:18:29.305Z,72.75
2023-02-27T04:19:29.214Z,72.73
2023-02-27T04:20:30.121Z,72.70
2023-02-27T04:21:29.503Z,72.71
2023-02-27T04:22:29.174Z,72.71
2023-02-27T04:23:29.151Z,72.73
2023-02-27T04:24:29.132Z,72.75
2023-02-27T04:25:29.121Z,72.75
2023-02-27T04:26:30.030Z,72.76
2023-02-27T04:27:29.091Z,72.75
2023-02-27T04:28:29.116Z,72.75
2023-02-27T04:29:29.085Z,72.73
2023-02-27T04:30:29.045Z,72.74
2023-02-27T04:31:29.527Z,72.77
2023-02-27T04:32:30.145Z,72.77
2023-02-27T04:33:29.021Z,72.79
2023-02-27T04:34:29.038Z,72.79
2023-02-27T04:35:29.130Z,72.79
2023-02-27T04:36:28.997Z,72.77
2023-02-27T04:37:29.898Z,72.77
2023-02-27T04:38:29.001Z,72.78
2023-02-27T04:39:28.955Z,72.77
2023-02-27T04:40:29.010Z,72.80
2023-02-27T04:41:29.171Z,72.81
2023-02-27T04:42:28.898Z,72.83
2023-02-27T04:43:29.828Z,72.82
2023-02-27T04:44:28.900Z,72.81
2023-02-27T04:45:29.021Z,72.81
2023-02-27T04:46:28.857Z,72.84
2023-02-27T04:47:28.852Z,72.83
2023-02-27T04:48:29.779Z,72.83
2023-02-27T04:49:28.825Z,72.81
2023-02-27T04:50:28.835Z,72.83
2023-02-27T04:51:29.004Z,72.85
2023-02-27T04:52:29.776Z,72.82
2023-02-27T04:53:28.783Z,72.80
2023-02-27T04:54:29.690Z,72.78
2023-02-27T04:55:28.759Z,72.76
2023-02-27T04:56:28.745Z,72.73
2023-02-27T04:57:28.735Z,72.71
2023-02-27T04:58:28.695Z,72.70
2023-02-27T04:59:29.633Z,72.68
2023-02-27T05:00:28.713Z,72.68
2023-02-27T05:01:29.015Z,72.68
2023-02-27T05:02:28.774Z,72.68
2023-02-27T05:03:28.643Z,72.65
2023-02-27T05:04:28.673Z,72.66
2023-02-27T05:05:29.545Z,72.66
2023-02-27T05:06:28.618Z,72.67
2023-02-27T05:07:28.624Z,72.67
2023-02-27T05:08:28.586Z,72.68
2023-02-27T05:09:28.564Z,72.67
2023-02-27T05:10:29.495Z,72.67
2023-02-27T05:11:28.787Z,72.71
2023-02-27T05:12:28.521Z,72.72
2023-02-27T05:13:28.508Z,72.73
2023-02-27T05:14:28.505Z,72.76
2023-02-27T05:15:29.471Z,72.77
2023-02-27T05:16:28.592Z,72.75
2023-02-27T05:17:28.485Z,72.76
2023-02-27T05:18:28.465Z,72.75
2023-02-27T05:19:28.441Z,72.76
2023-02-27T05:20:29.911Z,72.74
2023-02-27T05:21:28.800Z,72.75
2023-02-27T05:22:28.388Z,72.76
2023-02-27T05:23:28.391Z,72.78
2023-02-27T05:24:28.366Z,72.78
2023-02-27T05:25:29.324Z,72.78
2023-02-27T05:26:28.339Z,72.79
2023-02-27T05:27:28.392Z,72.81
2023-02-27T05:28:28.331Z,72.81
2023-02-27T05:29:28.317Z,72.82
2023-02-27T05:30:28.328Z,72.78
2023-02-27T05:31:29.484Z,72.78
2023-02-27T05:32:28.288Z,72.79
2023-02-27T05:33:28.254Z,72.80
2023-02-27T05:34:28.314Z,72.80
2023-02-27T05:35:29.336Z,72.81
2023-02-27T05:36:29.158Z,72.82
2023-02-27T05:37:28.234Z,72.83
2023-02-27T05:38:28.188Z,72.81
2023-02-27T05:39:28.188Z,72.81
2023-02-27T05:40:28.173Z,72.82
2023-02-27T05:41:29.296Z,72.83
2023-02-27T05:42:28.189Z,72.84
2023-02-27T05:43:28.162Z,72.85
2023-02-27T05:44:28.125Z,72.86
2023-02-27T05:45:28.132Z,72.85
2023-02-27T05:46:28.112Z,72.84
2023-02-27T05:47:29.036Z,72.82
2023-02-27T05:48:28.106Z,72.81
2023-02-27T05:49:28.066Z,72.81
2023-02-27T05:50:28.030Z,72.83
2023-02-27T05:51:28.369Z,72.81
2023-02-27T05:52:28.007Z,72.79
2023-02-27T05:53:28.948Z,72.76
2023-02-27T05:54:27.989Z,72.75
2023-02-27T05:55:27.968Z,72.75
2023-02-27T05:56:28.230Z,72.71
2023-02-27T05:57:27.945Z,72.73
2023-02-27T05:58:28.894Z,72.71
2023-02-27T05:59:27.910Z,72.71
2023-02-27T06:00:27.922Z,72.70
2023-02-27T06:01:27.900Z,72.70
2023-02-27T06:02:28.008Z,72.71
2023-02-27T06:03:28.022Z,72.68
2023-02-27T06:04:28.803Z,72.67
2023-02-27T06:05:27.865Z,72.66
2023-02-27T06:06:28.087Z,72.64
2023-02-27T06:07:27.837Z,72.62
2023-02-27T06:08:27.851Z,72.60
2023-02-27T06:09:28.742Z,72.59
2023-02-27T06:10:27.799Z,72.55
2023-02-27T06:11:27.827Z,72.54
2023-02-27T06:12:27.766Z,72.51
2023-02-27T06:13:27.748Z,72.51
2023-02-27T06:14:28.675Z,72.51
2023-02-27T06:15:27.744Z,72.49
2023-02-27T06:16:28.049Z,72.47
2023-02-27T06:17:27.745Z,72.47
2023-02-27T06:18:29.445Z,72.42
2023-02-27T06:19:27.669Z,72.38
2023-02-27T06:20:28.611Z,72.37
2023-02-27T06:21:27.650Z,72.38
2023-02-27T06:22:27.690Z,72.36
2023-02-27T06:23:27.659Z,72.35
2023-02-27T06:24:27.621Z,72.31
2023-02-27T06:25:27.612Z,72.30
2023-02-27T06:26:28.771Z,72.27
2023-02-27T06:27:27.590Z,72.28
2023-02-27T06:28:27.575Z,72.27
2023-02-27T06:29:27.573Z,72.30
2023-02-27T06:30:27.537Z,72.31
2023-02-27T06:31:28.467Z,72.30
2023-02-27T06:32:27.551Z,72.31
2023-02-27T06:33:27.494Z,72.30
2023-02-27T06:34:27.517Z,72.28
2023-02-27T06:35:27.474Z,72.25
2023-02-27T06:36:27.719Z,72.25
2023-02-27T06:37:28.391Z,72.24
2023-02-27T06:38:27.499Z,72.23
2023-02-27T06:39:27.514Z,72.21
2023-02-27T06:40:27.391Z,72.19
2023-02-27T06:41:27.391Z,72.17
2023-02-27T06:42:27.384Z,72.15
2023-02-27T06:43:28.336Z,72.09
2023-02-27T06:44:27.379Z,72.06
2023-02-27T06:45:27.343Z,72.03
2023-02-27T06:46:27.586Z,71.99
2023-02-27T06:47:27.314Z,71.98
2023-02-27T06:48:27.323Z,71.93
2023-02-27T06:49:28.259Z,71.90
2023-02-27T06:50:27.319Z,71.85
2023-02-27T06:51:27.280Z,71.79
2023-02-27T06:52:27.258Z,71.73
2023-02-27T06:53:27.240Z,71.67
2023-02-27T06:54:27.270Z,71.59
2023-02-27T06:55:28.153Z,71.50
2023-02-27T06:56:27.443Z,71.41
2023-02-27T06:57:27.200Z,71.33
2023-02-27T06:58:27.188Z,71.27
2023-02-27T06:59:27.186Z,71.20
2023-02-27T07:00:27.144Z,71.16
2023-02-27T07:01:28.154Z,71.11
2023-02-27T07:02:27.142Z,71.04
2023-02-27T07:03:27.125Z,70.99
2023-02-27T07:04:27.210Z,70.96
2023-02-27T07:05:27.085Z,70.92
2023-02-27T07:07:32.528Z,70.89
2023-02-27T07:07:35.354Z,70.90
2023-02-27T07:08:28.546Z,70.95
2023-02-27T07:09:27.065Z,70.98
2023-02-27T07:10:27.089Z,71.00
2023-02-27T07:11:27.018Z,70.97
2023-02-27T07:12:27.928Z,70.97
2023-02-27T07:13:26.998Z,70.92
2023-02-27T07:14:27.005Z,70.87
2023-02-27T07:15:26.994Z,70.81
2023-02-27T07:16:27.295Z,70.73
2023-02-27T07:17:26.997Z,70.68
2023-02-27T07:18:27.860Z,70.63
2023-02-27T07:19:26.940Z,70.58
2023-02-27T07:20:26.907Z,70.50
2023-02-27T07:21:26.889Z,70.40
2023-02-27T07:22:26.873Z,70.32
2023-02-27T07:23:26.893Z,70.23
2023-02-27T07:24:27.817Z,70.13
2023-02-27T07:25:26.854Z,70.05
2023-02-27T07:26:27.106Z,70.04
2023-02-27T07:27:26.813Z,70.01
2023-02-27T07:28:26.808Z,70.01
2023-02-27T07:29:26.813Z,70.01
2023-02-27T07:30:27.692Z,70.00
2023-02-27T07:31:28.863Z,69.99
2023-02-27T07:32:26.772Z,70.03
2023-02-27T07:33:26.721Z,70.09
2023-02-27T07:34:26.711Z,70.13
2023-02-27T07:35:27.668Z,70.18
2023-02-27T07:36:27.013Z,70.20
2023-02-27T07:37:28.118Z,70.24
2023-02-27T07:38:26.685Z,70.22
2023-02-27T07:39:26.652Z,70.21
2023-02-27T07:40:27.669Z,70.19
2023-02-27T07:41:30.777Z,70.14
2023-02-27T07:42:26.654Z,70.11
2023-02-27T07:43:26.609Z,70.08
2023-02-27T07:44:26.604Z,70.03
2023-02-27T07:45:27.517Z,70.00
2023-02-27T07:46:26.832Z,69.96
2023-02-27T07:47:26.596Z,69.94
2023-02-27T07:48:26.535Z,69.88
2023-02-27T07:49:26.558Z,69.88
2023-02-27T07:50:27.535Z,69.86
2023-02-27T07:51:26.541Z,69.87
2023-02-27T07:52:26.507Z,69.90
2023-02-27T07:53:26.475Z,69.93
2023-02-27T07:54:26.461Z,69.93
2023-02-27T07:55:27.402Z,69.88
2023-02-27T07:56:26.818Z,69.84
2023-02-27T07:57:26.434Z,69.72
2023-02-27T07:58:26.416Z,69.60
2023-02-27T07:59:26.411Z,69.48
2023-02-27T08:00:27.343Z,69.36
2023-02-27T08:01:26.396Z,69.31
2023-02-27T08:02:26.388Z,69.24
2023-02-27T08:03:26.432Z,69.16
2023-02-27T08:04:26.409Z,69.09
2023-02-27T08:05:27.259Z,69.04
2023-02-27T08:06:26.530Z,69.00
2023-02-27T08:07:26.357Z,68.95
2023-02-27T08:08:26.289Z,68.91
2023-02-27T08:09:26.272Z,68.85
2023-02-27T08:10:27.210Z,68.77
2023-02-27T08:11:26.577Z,68.70
2023-02-27T08:12:26.277Z,68.62
2023-02-27T08:13:55.802Z,68.53
2023-02-27T08:14:27.247Z,68.44
2023-02-27T08:15:27.140Z,68.33
2023-02-27T08:16:26.744Z,68.20
2023-02-27T08:17:26.184Z,68.03
2023-02-27T08:18:26.150Z,67.87
2023-02-27T08:19:26.130Z,67.68
2023-02-27T08:20:27.130Z,67.53
2023-02-27T08:21:26.619Z,67.40
2023-02-27T08:22:26.133Z,67.29
2023-02-27T08:23:26.125Z,67.21
2023-02-27T08:24:26.122Z,67.12
2023-02-27T08:25:27.095Z,67.03
2023-02-27T08:26:26.435Z,66.93
2023-02-27T08:27:26.061Z,66.85
2023-02-27T08:28:26.017Z,66.78
2023-02-27T08:29:26.171Z,66.73
2023-02-27T08:30:26.964Z,66.65
2023-02-27T08:31:26.002Z,66.56
2023-02-27T08:32:26.049Z,66.51
2023-02-27T08:33:25.999Z,66.45
2023-02-27T08:34:26.008Z,66.38
2023-02-27T08:35:26.937Z,66.29
2023-02-27T08:36:26.156Z,66.23
2023-02-27T08:37:26.009Z,66.13
2023-02-27T08:38:26.544Z,66.02
2023-02-27T08:39:25.947Z,65.89
2023-02-27T08:40:25.913Z,65.77
2023-02-27T08:41:26.859Z,65.67
2023-02-27T08:42:26.999Z,65.58
2023-02-27T08:43:25.867Z,65.51
2023-02-27T08:44:25.893Z,65.44
2023-02-27T08:45:25.823Z,65.36
2023-02-27T08:46:26.395Z,65.25
2023-02-27T08:47:26.739Z,65.15
2023-02-27T08:48:25.776Z,65.08
2023-02-27T08:49:25.785Z,65.00
2023-02-27T08:50:25.752Z,64.93
2023-02-27T08:51:26.125Z,64.88
2023-02-27T08:52:25.721Z,64.81
2023-02-27T08:53:26.674Z,64.77
2023-02-27T08:54:25.717Z,64.75
2023-02-27T08:55:25.703Z,64.70
2023-02-27T08:56:26.032Z,64.61
2023-02-27T08:57:25.689Z,64.52
2023-02-27T08:58:26.649Z,64.41
2023-02-27T08:59:25.650Z,64.31
2023-02-27T09:00:25.708Z,64.21
2023-02-27T09:01:26.033Z,64.13
2023-02-27T09:02:25.699Z,64.02
2023-02-27T09:03:26.518Z,63.86
2023-02-27T09:04:25.594Z,63.58
2023-02-27T09:05:25.579Z,63.34
2023-02-27T09:06:26.453Z,62.95
2023-02-27T09:07:25.538Z,62.82
2023-02-27T09:08:25.552Z,62.68
2023-02-27T09:09:26.463Z,62.63
2023-02-27T09:10:25.492Z,62.59
2023-02-27T09:11:25.907Z,62.54
2023-02-27T09:12:25.485Z,62.47
2023-02-27T09:13:25.470Z,62.37
2023-02-27T09:14:26.439Z,62.28
2023-02-27T09:15:25.464Z,62.20
2023-02-27T09:16:25.673Z,62.20
2023-02-27T09:17:25.470Z,62.22
2023-02-27T09:18:25.396Z,62.25
2023-02-27T09:19:25.439Z,62.28
2023-02-27T09:20:26.324Z,62.34
2023-02-27T09:21:25.419Z,62.44
2023-02-27T09:22:25.351Z,62.56
2023-02-27T09:23:25.397Z,62.66
2023-02-27T09:24:25.339Z,62.68
2023-02-27T09:25:25.349Z,62.68
2023-02-27T09:26:39.998Z,62.65
2023-02-27T09:27:26.831Z,62.55
2023-02-27T09:28:25.381Z,62.44
2023-02-27T09:29:25.304Z,62.32
2023-02-27T09:30:25.232Z,62.22
2023-02-27T09:31:25.454Z,62.11
2023-02-27T09:32:26.337Z,61.95
2023-02-27T09:33:25.355Z,61.83
2023-02-27T09:34:25.225Z,61.74
2023-02-27T09:35:25.378Z,61.73
2023-02-27T09:36:25.515Z,61.71
2023-02-27T09:37:26.113Z,61.69
2023-02-27T09:38:25.209Z,61.69
2023-02-27T09:39:25.161Z,61.70
2023-02-27T09:40:25.120Z,61.83
2023-02-27T09:41:25.342Z,61.99
2023-02-27T09:42:26.013Z,62.13
2023-02-27T09:43:25.066Z,62.26
2023-02-27T09:44:36.440Z,62.34
2023-02-27T09:45:26.549Z,62.40
2023-02-27T09:46:25.475Z,62.45
2023-02-27T09:47:25.017Z,62.52
2023-02-27T09:48:25.964Z,62.53
2023-02-27T09:49:25.021Z,62.53
2023-02-27T09:50:25.000Z,62.54
2023-02-27T09:51:25.216Z,62.53
2023-02-27T09:52:24.975Z,62.53
2023-02-27T09:53:25.887Z,62.50
2023-02-27T09:54:24.942Z,62.47
2023-02-27T09:55:25.022Z,62.39
2023-02-27T09:56:25.205Z,62.29
2023-02-27T09:57:24.908Z,62.20
2023-02-27T09:58:24.890Z,62.14
2023-02-27T09:59:25.812Z,62.12
2023-02-27T10:00:24.861Z,62.13
2023-02-27T10:01:24.901Z,62.16
2023-02-27T10:02:24.896Z,62.17
2023-02-27T10:03:24.919Z,62.17
2023-02-27T10:04:24.797Z,62.20
2023-02-27T10:05:25.799Z,62.26
2023-02-27T10:06:24.871Z,62.32
2023-02-27T10:07:24.798Z,62.34
2023-02-27T10:08:24.780Z,62.38
2023-02-27T10:09:24.725Z,62.43
2023-02-27T10:10:24.799Z,62.46
2023-02-27T10:11:25.643Z,62.47
2023-02-27T10:12:24.701Z,62.45
2023-02-27T10:13:25.672Z,62.39
2023-02-27T10:14:24.753Z,62.36
2023-02-27T10:15:24.696Z,62.37
2023-02-27T10:16:25.958Z,62.43
2023-02-27T10:17:24.640Z,62.42
2023-02-27T10:18:28.380Z,62.37
2023-02-27T10:19:26.111Z,62.30
2023-02-27T10:20:24.639Z,62.23
2023-02-27T10:21:24.693Z,62.18
2023-02-27T10:22:25.524Z,62.07
2023-02-27T10:23:24.566Z,61.97
2023-02-27T10:24:24.564Z,61.84
2023-02-27T10:25:31.720Z,61.63
2023-02-27T10:26:26.060Z,61.44
2023-02-27T10:27:24.506Z,61.28
2023-02-27T10:28:25.452Z,61.07
2023-02-27T10:29:24.472Z,60.82
2023-02-27T10:30:29.861Z,60.62
2023-02-27T10:31:26.418Z,60.28
2023-02-27T10:32:24.484Z,60.01
2023-02-27T10:33:25.791Z,59.76
2023-02-27T10:34:25.350Z,59.40
2023-02-27T10:35:24.411Z,59.05
2023-02-27T10:36:33.665Z,58.67
2023-02-27T10:37:25.936Z,58.57
2023-02-27T10:38:24.363Z,58.62
2023-02-27T10:39:24.386Z,58.80
2023-02-27T10:40:25.250Z,58.96
2023-02-27T10:41:24.378Z,59.04
2023-02-27T10:42:24.325Z,58.69
2023-02-27T10:43:24.292Z,58.24
2023-02-27T10:44:24.345Z,58.06
2023-02-27T10:45:24.315Z,57.94
2023-02-27T10:46:25.352Z,57.89
2023-02-27T10:47:24.272Z,57.84
2023-02-27T10:48:24.262Z,57.83
2023-02-27T10:49:24.279Z,57.78
2023-02-27T10:50:24.199Z,57.74
2023-02-27T10:51:24.228Z,57.71
2023-02-27T10:52:25.255Z,57.57
2023-02-27T10:53:24.288Z,57.42
2023-02-27T10:54:24.300Z,57.24
2023-02-27T10:55:24.128Z,56.86
2023-02-27T10:56:24.166Z,56.74
2023-02-27T10:57:24.117Z,56.63
2023-02-27T10:58:25.038Z,56.58
2023-02-27T10:59:24.107Z,56.67
2023-02-27T11:00:24.077Z,56.88
2023-02-27T11:01:24.149Z,57.14
2023-02-27T11:02:24.046Z,57.50
2023-02-27T11:03:24.978Z,57.86
2023-02-27T11:04:24.080Z,58.10
2023-02-27T11:05:24.101Z,58.08
2023-02-27T11:06:24.007Z,57.88
2023-02-27T11:07:23.982Z,57.14
2023-02-27T11:08:24.897Z,56.51
2023-02-27T11:09:23.985Z,56.24
2023-02-27T11:10:23.959Z,56.30
2023-02-27T11:11:23.936Z,56.32
2023-02-27T11:12:23.950Z,56.12
2023-02-27T11:13:25.813Z,56.01
2023-02-27T11:14:23.908Z,56.35
2023-02-27T11:15:23.880Z,56.86
2023-02-27T11:16:23.893Z,57.38
2023-02-27T11:17:23.879Z,57.65
2023-02-27T11:18:24.785Z,57.75
2023-02-27T11:19:23.833Z,58.13
2023-02-27T11:20:23.822Z,58.62
2023-02-27T11:21:23.959Z,58.62
2023-02-27T11:22:23.794Z,58.63
2023-02-27T11:23:23.851Z,58.75
2023-02-27T11:24:24.751Z,58.84
2023-02-27T11:25:23.786Z,58.66
2023-02-27T11:26:23.775Z,58.71
2023-02-27T11:27:23.746Z,58.14
2023-02-27T11:28:23.721Z,58.29
2023-02-27T11:29:23.731Z,57.50
2023-02-27T11:30:24.641Z,56.82
2023-02-27T11:31:23.739Z,56.66
2023-02-27T11:32:23.724Z,56.51
2023-02-27T11:33:23.651Z,56.47
2023-02-27T11:34:23.671Z,56.63
2023-02-27T11:35:23.627Z,56.29
2023-02-27T11:36:24.614Z,56.40
2023-02-27T11:37:23.637Z,56.91
2023-02-27T11:38:23.584Z,57.36
2023-02-27T11:39:23.571Z,57.56
2023-02-27T11:40:23.573Z,57.04
2023-02-27T11:41:23.582Z,57.21
2023-02-27T11:42:24.505Z,57.29
2023-02-27T11:43:23.524Z,57.37
2023-02-27T11:44:34.107Z,57.30
2023-02-27T11:46:17.650Z,57.31
2023-02-27T11:46:46.890Z,57.65
2023-02-27T11:47:24.554Z,58.04
2023-02-27T11:48:24.393Z,57.48
2023-02-27T11:49:23.463Z,57.70
2023-02-27T11:50:23.485Z,57.58
2023-02-27T11:51:23.407Z,56.84
2023-02-27T11:52:23.403Z,56.40
2023-02-27T11:53:24.341Z,56.06
2023-02-27T11:54:23.384Z,55.71
2023-02-27T11:55:23.376Z,56.32
2023-02-27T11:56:23.344Z,56.02
2023-02-27T11:57:23.335Z,55.69
2023-02-27T11:58:23.314Z,55.27
2023-02-27T11:59:24.273Z,54.99
2023-02-27T12:00:23.283Z,54.76
2023-02-27T12:01:23.349Z,54.73
2023-02-27T12:02:23.573Z,54.75
2023-02-27T12:03:23.274Z,54.80
2023-02-27T12:04:24.180Z,54.81
2023-02-27T12:05:23.233Z,54.70
2023-02-27T12:06:23.210Z,54.96
2023-02-27T12:07:23.242Z,56.57
2023-02-27T12:08:23.236Z,58.00
2023-02-27T12:09:23.197Z,59.15
2023-02-27T12:10:24.143Z,59.78
2023-02-27T12:11:23.160Z,60.54
2023-02-27T12:12:23.151Z,61.10
2023-02-27T12:13:23.174Z,61.55
2023-02-27T12:14:23.117Z,61.76
2023-02-27T12:15:24.063Z,61.87
2023-02-27T12:16:23.141Z,62.13
2023-02-27T12:17:23.075Z,62.49
2023-02-27T12:18:23.104Z,62.86
2023-02-27T12:19:23.060Z,63.21
2023-02-27T12:20:23.978Z,63.49
2023-02-27T12:21:23.019Z,63.77
2023-02-27T12:22:23.036Z,64.04
2023-02-27T12:23:23.021Z,64.41
2023-02-27T12:24:22.993Z,64.77
2023-02-27T12:25:23.039Z,65.07
2023-02-27T12:26:23.916Z,65.27
2023-02-27T12:27:22.955Z,64.77
2023-02-27T12:28:22.981Z,62.96
2023-02-27T12:29:22.910Z,62.15
2023-02-27T12:30:22.903Z,62.48
2023-02-27T12:31:23.826Z,62.96
2023-02-27T12:32:22.900Z,63.53
2023-02-27T12:33:22.918Z,64.03
2023-02-27T12:34:22.850Z,64.39
2023-02-27T12:35:22.857Z,64.58
2023-02-27T12:36:22.858Z,64.62
2023-02-27T12:37:23.766Z,64.60
2023-02-27T12:38:22.816Z,64.54
2023-02-27T12:39:22.793Z,64.53
2023-02-27T12:40:22.781Z,63.73
2023-02-27T12:41:22.768Z,62.07
2023-02-27T12:42:22.737Z,60.77
2023-02-27T12:43:23.705Z,59.86
2023-02-27T12:44:22.705Z,59.21
2023-02-27T12:45:22.722Z,58.73
2023-02-27T12:46:22.720Z,58.31
2023-02-27T12:47:22.701Z,57.90
2023-02-27T12:48:23.660Z,57.45
2023-02-27T12:49:22.658Z,57.28
2023-02-27T12:50:22.646Z,58.01
2023-02-27T12:51:22.628Z,57.11
2023-02-27T12:52:22.627Z,56.34